sensor_id;sensor_type;location;lat;lon;timestamp;temperature;humidity
9389;DHT22;4734;52.778;6.798;2022-10-16T00:00:20;13.20;99.90
9389;DHT22;4734;52.778;6.798;2022-10-16T00:03:06;13.20;99.90
9389;DHT22;4734;52.778;6.798;2022-10-16T00:05:51;13.10;99.90
9389;DHT22;4734;52.778;6.798;2022-10-16T00:08:39;13.10;99.90
9389;DHT22;4734;52.778;6.798;2022-10-16T00:11:26;13.10;99.90
9389;DHT22;4734;52.778;6.798;2022-10-16T00:14:14;13.10;99.90
9389;DHT22;4734;52.778;6.798;2022-10-16T00:16:59;13.10;99.90
9389;DHT22;4734;52.778;6.798;2022-10-16T00:19:45;13.10;99.90
9389;DHT22;4734;52.778;6.798;2022-10-16T00:22:31;13.10;99.90
9389;DHT22;4734;52.778;6.798;2022-10-16T00:25:18;13.10;99.90
9389;DHT22;4734;52.778;6.798;2022-10-16T00:28:04;13.10;99.90
9389;DHT22;4734;52.778;6.798;2022-10-16T00:30:49;13.10;99.90
9389;DHT22;4734;52.778;6.798;2022-10-16T00:33:35;13.10;99.90
9389;DHT22;4734;52.778;6.798;2022-10-16T00:36:23;13.10;99.90
9389;DHT22;4734;52.778;6.798;2022-10-16T00:39:08;13.10;99.90
9389;DHT22;4734;52.778;6.798;2022-10-16T00:41:55;13.10;99.90
9389;DHT22;4734;52.778;6.798;2022-10-16T00:44:43;13.10;99.90
9389;DHT22;4734;52.778;6.798;2022-10-16T00:47:32;13.10;99.90
9389;DHT22;4734;52.778;6.798;2022-10-16T00:50:23;13.10;99.90
9389;DHT22;4734;52.778;6.798;2022-10-16T00:53:11;13.10;99.90
9389;DHT22;4734;52.778;6.798;2022-10-16T00:55:57;13.10;99.90
9389;DHT22;4734;52.778;6.798;2022-10-16T00:58:44;13.00;99.90
9389;DHT22;4734;52.778;6.798;2022-10-16T01:01:30;13.10;99.90
9389;DHT22;4734;52.778;6.798;2022-10-16T01:04:15;13.00;99.90
9389;DHT22;4734;52.778;6.798;2022-10-16T01:07:09;13.00;99.90
9389;DHT22;4734;52.778;6.798;2022-10-16T01:10:06;13.00;99.90
9389;DHT22;4734;52.778;6.798;2022-10-16T01:12:58;13.00;99.90
9389;DHT22;4734;52.778;6.798;2022-10-16T01:15:48;13.00;99.90
9389;DHT22;4734;52.778;6.798;2022-10-16T01:18:42;13.00;99.90
9389;DHT22;4734;52.778;6.798;2022-10-16T01:21:31;13.00;99.90
9389;DHT22;4734;52.778;6.798;2022-10-16T01:24:27;13.00;99.90
9389;DHT22;4734;52.778;6.798;2022-10-16T01:27:22;12.90;99.90
9389;DHT22;4734;52.778;6.798;2022-10-16T01:30:13;12.90;99.90
9389;DHT22;4734;52.778;6.798;2022-10-16T01:33:04;13.00;99.90
9389;DHT22;4734;52.778;6.798;2022-10-16T01:35:53;12.90;99.90
9389;DHT22;4734;52.778;6.798;2022-10-16T01:38:40;12.90;99.90
9389;DHT22;4734;52.778;6.798;2022-10-16T01:41:30;12.90;99.90
9389;DHT22;4734;52.778;6.798;2022-10-16T01:44:20;12.90;99.90
9389;DHT22;4734;52.778;6.798;2022-10-16T01:47:09;12.90;99.90
9389;DHT22;4734;52.778;6.798;2022-10-16T01:49:55;12.90;99.90
9389;DHT22;4734;52.778;6.798;2022-10-16T01:52:45;12.90;99.90
9389;DHT22;4734;52.778;6.798;2022-10-16T01:55:35;12.90;99.90
9389;DHT22;4734;52.778;6.798;2022-10-16T01:58:22;12.90;99.90
9389;DHT22;4734;52.778;6.798;2022-10-16T02:01:11;12.90;99.90
9389;DHT22;4734;52.778;6.798;2022-10-16T02:04:01;12.90;99.90
9389;DHT22;4734;52.778;6.798;2022-10-16T02:06:48;12.80;99.90
9389;DHT22;4734;52.778;6.798;2022-10-16T02:09:34;12.80;99.90
9389;DHT22;4734;52.778;6.798;2022-10-16T02:12:25;12.80;99.90
9389;DHT22;4734;52.778;6.798;2022-10-16T02:15:11;12.80;99.90
9389;DHT22;4734;52.778;6.798;2022-10-16T02:17:58;12.80;99.90
9389;DHT22;4734;52.778;6.798;2022-10-16T02:20:50;12.80;99.90
9389;DHT22;4734;52.778;6.798;2022-10-16T02:23:42;12.80;99.90
9389;DHT22;4734;52.778;6.798;2022-10-16T02:26:35;12.80;99.90
9389;DHT22;4734;52.778;6.798;2022-10-16T02:29:25;12.80;99.90
9389;DHT22;4734;52.778;6.798;2022-10-16T02:32:13;12.80;99.90
9389;DHT22;4734;52.778;6.798;2022-10-16T02:35:03;12.80;99.90
9389;DHT22;4734;52.778;6.798;2022-10-16T02:37:50;12.80;99.90
9389;DHT22;4734;52.778;6.798;2022-10-16T02:40:36;12.80;99.90
9389;DHT22;4734;52.778;6.798;2022-10-16T02:43:22;12.90;99.90
9389;DHT22;4734;52.778;6.798;2022-10-16T02:46:08;12.80;99.90
9389;DHT22;4734;52.778;6.798;2022-10-16T02:48:54;12.90;99.90
9389;DHT22;4734;52.778;6.798;2022-10-16T02:51:41;12.80;99.90
9389;DHT22;4734;52.778;6.798;2022-10-16T02:54:26;12.90;99.90
9389;DHT22;4734;52.778;6.798;2022-10-16T02:57:12;12.90;99.90
9389;DHT22;4734;52.778;6.798;2022-10-16T02:59:57;12.90;99.90
9389;DHT22;4734;52.778;6.798;2022-10-16T03:02:43;12.90;99.90
9389;DHT22;4734;52.778;6.798;2022-10-16T03:05:29;12.90;99.90
9389;DHT22;4734;52.778;6.798;2022-10-16T03:08:15;12.90;99.90
9389;DHT22;4734;52.778;6.798;2022-10-16T03:11:01;12.90;99.90
9389;DHT22;4734;52.778;6.798;2022-10-16T03:13:47;12.90;99.90
9389;DHT22;4734;52.778;6.798;2022-10-16T03:16:32;12.90;99.90
9389;DHT22;4734;52.778;6.798;2022-10-16T03:19:19;12.90;99.90
9389;DHT22;4734;52.778;6.798;2022-10-16T03:22:05;12.90;99.90
9389;DHT22;4734;52.778;6.798;2022-10-16T03:24:52;12.90;99.90
9389;DHT22;4734;52.778;6.798;2022-10-16T03:27:37;13.00;99.90
9389;DHT22;4734;52.778;6.798;2022-10-16T03:30:23;13.00;99.90
9389;DHT22;4734;52.778;6.798;2022-10-16T03:33:08;13.00;99.90
9389;DHT22;4734;52.778;6.798;2022-10-16T03:35:54;13.00;99.90
9389;DHT22;4734;52.778;6.798;2022-10-16T03:38:40;13.00;99.90
9389;DHT22;4734;52.778;6.798;2022-10-16T03:41:27;13.00;99.90
9389;DHT22;4734;52.778;6.798;2022-10-16T03:44:12;13.00;99.90
9389;DHT22;4734;52.778;6.798;2022-10-16T03:46:58;13.00;99.90
9389;DHT22;4734;52.778;6.798;2022-10-16T03:49:43;13.00;99.90
9389;DHT22;4734;52.778;6.798;2022-10-16T03:52:29;13.00;99.90
9389;DHT22;4734;52.778;6.798;2022-10-16T03:55:16;13.00;99.90
9389;DHT22;4734;52.778;6.798;2022-10-16T03:58:02;13.10;99.90
9389;DHT22;4734;52.778;6.798;2022-10-16T04:00:48;13.00;99.90
9389;DHT22;4734;52.778;6.798;2022-10-16T04:03:34;13.10;99.90
9389;DHT22;4734;52.778;6.798;2022-10-16T04:06:19;13.10;99.90
9389;DHT22;4734;52.778;6.798;2022-10-16T04:09:05;13.10;99.90
9389;DHT22;4734;52.778;6.798;2022-10-16T04:11:50;13.10;99.90
9389;DHT22;4734;52.778;6.798;2022-10-16T04:14:37;13.10;99.90
9389;DHT22;4734;52.778;6.798;2022-10-16T04:17:23;13.10;99.90
9389;DHT22;4734;52.778;6.798;2022-10-16T04:20:09;13.10;99.90
9389;DHT22;4734;52.778;6.798;2022-10-16T04:22:54;13.10;99.90
9389;DHT22;4734;52.778;6.798;2022-10-16T04:25:40;13.10;99.90
9389;DHT22;4734;52.778;6.798;2022-10-16T04:28:25;13.10;99.90
9389;DHT22;4734;52.778;6.798;2022-10-16T04:31:12;13.10;99.90
9389;DHT22;4734;52.778;6.798;2022-10-16T04:33:58;13.10;99.90
9389;DHT22;4734;52.778;6.798;2022-10-16T04:36:43;13.10;99.90
9389;DHT22;4734;52.778;6.798;2022-10-16T04:39:29;13.10;99.90
9389;DHT22;4734;52.778;6.798;2022-10-16T04:42:14;13.10;99.90
9389;DHT22;4734;52.778;6.798;2022-10-16T04:45:00;13.10;99.90
9389;DHT22;4734;52.778;6.798;2022-10-16T04:47:47;13.10;99.90
9389;DHT22;4734;52.778;6.798;2022-10-16T04:50:33;13.10;99.90
9389;DHT22;4734;52.778;6.798;2022-10-16T04:53:18;13.10;99.90
9389;DHT22;4734;52.778;6.798;2022-10-16T04:56:04;13.10;99.90
9389;DHT22;4734;52.778;6.798;2022-10-16T04:58:50;13.10;99.90
9389;DHT22;4734;52.778;6.798;2022-10-16T05:01:35;13.10;99.90
9389;DHT22;4734;52.778;6.798;2022-10-16T05:04:23;13.10;99.90
9389;DHT22;4734;52.778;6.798;2022-10-16T05:07:08;13.10;99.90
9389;DHT22;4734;52.778;6.798;2022-10-16T05:09:54;13.10;99.90
9389;DHT22;4734;52.778;6.798;2022-10-16T05:12:40;13.10;99.90
9389;DHT22;4734;52.778;6.798;2022-10-16T05:15:25;13.10;99.90
9389;DHT22;4734;52.778;6.798;2022-10-16T05:18:11;13.10;99.90
9389;DHT22;4734;52.778;6.798;2022-10-16T05:20:58;13.10;99.90
9389;DHT22;4734;52.778;6.798;2022-10-16T05:23:43;13.10;99.90
9389;DHT22;4734;52.778;6.798;2022-10-16T05:26:29;13.10;99.90
9389;DHT22;4734;52.778;6.798;2022-10-16T05:29:15;13.10;99.90
9389;DHT22;4734;52.778;6.798;2022-10-16T05:32:00;13.10;99.90
9389;DHT22;4734;52.778;6.798;2022-10-16T05:34:46;13.10;99.90
9389;DHT22;4734;52.778;6.798;2022-10-16T05:37:33;13.10;99.90
9389;DHT22;4734;52.778;6.798;2022-10-16T05:40:18;13.10;99.90
9389;DHT22;4734;52.778;6.798;2022-10-16T05:43:04;13.00;99.90
9389;DHT22;4734;52.778;6.798;2022-10-16T05:45:56;13.00;99.90
9389;DHT22;4734;52.778;6.798;2022-10-16T05:48:42;13.00;99.90
9389;DHT22;4734;52.778;6.798;2022-10-16T05:51:27;13.00;99.90
9389;DHT22;4734;52.778;6.798;2022-10-16T05:54:15;13.00;99.90
9389;DHT22;4734;52.778;6.798;2022-10-16T05:57:00;13.00;99.90
9389;DHT22;4734;52.778;6.798;2022-10-16T05:59:46;13.00;99.90
9389;DHT22;4734;52.778;6.798;2022-10-16T06:02:32;13.00;99.90
9389;DHT22;4734;52.778;6.798;2022-10-16T06:05:17;13.00;99.90
9389;DHT22;4734;52.778;6.798;2022-10-16T06:08:03;13.00;99.90
9389;DHT22;4734;52.778;6.798;2022-10-16T06:11:00;13.00;99.90
9389;DHT22;4734;52.778;6.798;2022-10-16T06:13:49;13.00;99.90
9389;DHT22;4734;52.778;6.798;2022-10-16T06:16:36;13.00;99.90
9389;DHT22;4734;52.778;6.798;2022-10-16T06:19:21;13.00;99.90
9389;DHT22;4734;52.778;6.798;2022-10-16T06:22:07;13.00;99.90
9389;DHT22;4734;52.778;6.798;2022-10-16T06:24:52;13.00;99.90
9389;DHT22;4734;52.778;6.798;2022-10-16T06:27:41;13.00;99.90
9389;DHT22;4734;52.778;6.798;2022-10-16T06:30:26;13.00;99.90
9389;DHT22;4734;52.778;6.798;2022-10-16T06:33:12;13.00;99.90
9389;DHT22;4734;52.778;6.798;2022-10-16T06:36:00;13.00;99.90
9389;DHT22;4734;52.778;6.798;2022-10-16T06:38:46;12.90;99.90
9389;DHT22;4734;52.778;6.798;2022-10-16T06:41:32;13.00;99.90
9389;DHT22;4734;52.778;6.798;2022-10-16T06:44:19;13.00;99.90
9389;DHT22;4734;52.778;6.798;2022-10-16T06:47:04;13.00;99.90
9389;DHT22;4734;52.778;6.798;2022-10-16T06:49:49;13.00;99.90
9389;DHT22;4734;52.778;6.798;2022-10-16T06:52:35;13.00;99.90
9389;DHT22;4734;52.778;6.798;2022-10-16T06:55:20;13.00;99.90
9389;DHT22;4734;52.778;6.798;2022-10-16T06:58:06;13.00;99.90
9389;DHT22;4734;52.778;6.798;2022-10-16T07:00:56;13.00;99.90
9389;DHT22;4734;52.778;6.798;2022-10-16T07:03:44;13.00;99.90
9389;DHT22;4734;52.778;6.798;2022-10-16T07:06:32;13.00;99.90
9389;DHT22;4734;52.778;6.798;2022-10-16T07:09:17;13.00;99.90
9389;DHT22;4734;52.778;6.798;2022-10-16T07:12:03;13.00;99.90
9389;DHT22;4734;52.778;6.798;2022-10-16T07:14:49;13.10;99.90
9389;DHT22;4734;52.778;6.798;2022-10-16T07:17:37;13.10;99.90
9389;DHT22;4734;52.778;6.798;2022-10-16T07:20:23;13.10;99.90
9389;DHT22;4734;52.778;6.798;2022-10-16T07:23:08;13.10;99.90
9389;DHT22;4734;52.778;6.798;2022-10-16T07:25:54;13.10;99.90
9389;DHT22;4734;52.778;6.798;2022-10-16T07:28:40;13.10;99.90
9389;DHT22;4734;52.778;6.798;2022-10-16T07:31:27;13.10;99.90
9389;DHT22;4734;52.778;6.798;2022-10-16T07:34:16;13.10;99.90
9389;DHT22;4734;52.778;6.798;2022-10-16T07:37:02;13.10;99.90
9389;DHT22;4734;52.778;6.798;2022-10-16T07:39:48;13.20;99.90
9389;DHT22;4734;52.778;6.798;2022-10-16T07:42:34;13.20;99.90
9389;DHT22;4734;52.778;6.798;2022-10-16T07:45:19;13.20;99.90
9389;DHT22;4734;52.778;6.798;2022-10-16T07:48:05;13.20;99.90
9389;DHT22;4734;52.778;6.798;2022-10-16T07:50:52;13.20;99.90
9389;DHT22;4734;52.778;6.798;2022-10-16T07:53:37;13.30;99.90
9389;DHT22;4734;52.778;6.798;2022-10-16T07:56:23;13.30;99.90
9389;DHT22;4734;52.778;6.798;2022-10-16T07:59:10;13.30;99.90
9389;DHT22;4734;52.778;6.798;2022-10-16T08:01:55;13.40;99.90
9389;DHT22;4734;52.778;6.798;2022-10-16T08:04:41;13.40;99.90
9389;DHT22;4734;52.778;6.798;2022-10-16T08:07:28;13.40;99.90
9389;DHT22;4734;52.778;6.798;2022-10-16T08:10:16;13.40;99.90
9389;DHT22;4734;52.778;6.798;2022-10-16T08:13:02;13.40;99.90
9389;DHT22;4734;52.778;6.798;2022-10-16T08:15:48;13.50;99.90
9389;DHT22;4734;52.778;6.798;2022-10-16T08:18:34;13.50;99.90
9389;DHT22;4734;52.778;6.798;2022-10-16T08:21:21;13.50;99.90
9389;DHT22;4734;52.778;6.798;2022-10-16T08:24:08;13.50;99.90
9389;DHT22;4734;52.778;6.798;2022-10-16T08:26:54;13.60;99.90
9389;DHT22;4734;52.778;6.798;2022-10-16T08:29:40;13.60;99.90
9389;DHT22;4734;52.778;6.798;2022-10-16T08:32:25;13.60;99.90
9389;DHT22;4734;52.778;6.798;2022-10-16T08:35:11;13.70;99.90
9389;DHT22;4734;52.778;6.798;2022-10-16T08:37:57;13.70;99.90
9389;DHT22;4734;52.778;6.798;2022-10-16T08:40:44;13.70;99.90
9389;DHT22;4734;52.778;6.798;2022-10-16T08:43:42;13.70;99.90
9389;DHT22;4734;52.778;6.798;2022-10-16T08:46:37;13.80;99.90
9389;DHT22;4734;52.778;6.798;2022-10-16T08:49:27;13.80;99.90
9389;DHT22;4734;52.778;6.798;2022-10-16T08:52:13;13.80;99.90
9389;DHT22;4734;52.778;6.798;2022-10-16T08:54:59;13.90;99.90
9389;DHT22;4734;52.778;6.798;2022-10-16T08:57:46;13.90;99.90
9389;DHT22;4734;52.778;6.798;2022-10-16T09:00:32;14.00;99.90
9389;DHT22;4734;52.778;6.798;2022-10-16T09:03:28;14.00;99.90
9389;DHT22;4734;52.778;6.798;2022-10-16T09:06:26;14.00;99.90
9389;DHT22;4734;52.778;6.798;2022-10-16T09:09:38;14.10;99.90
9389;DHT22;4734;52.778;6.798;2022-10-16T09:12:30;14.10;99.90
9389;DHT22;4734;52.778;6.798;2022-10-16T09:15:27;14.20;99.90
9389;DHT22;4734;52.778;6.798;2022-10-16T09:18:20;14.20;99.90
9389;DHT22;4734;52.778;6.798;2022-10-16T09:21:16;14.30;99.90
9389;DHT22;4734;52.778;6.798;2022-10-16T09:24:10;14.30;99.90
9389;DHT22;4734;52.778;6.798;2022-10-16T09:26:56;14.40;99.90
9389;DHT22;4734;52.778;6.798;2022-10-16T09:29:42;14.40;99.90
9389;DHT22;4734;52.778;6.798;2022-10-16T09:32:29;14.50;99.90
9389;DHT22;4734;52.778;6.798;2022-10-16T09:35:18;14.50;99.90
9389;DHT22;4734;52.778;6.798;2022-10-16T09:38:05;14.60;99.90
9389;DHT22;4734;52.778;6.798;2022-10-16T09:40:51;14.70;99.90
9389;DHT22;4734;52.778;6.798;2022-10-16T09:43:40;14.70;99.90
9389;DHT22;4734;52.778;6.798;2022-10-16T09:46:28;14.80;99.90
9389;DHT22;4734;52.778;6.798;2022-10-16T09:49:28;14.90;99.90
9389;DHT22;4734;52.778;6.798;2022-10-16T09:52:15;14.90;99.90
9389;DHT22;4734;52.778;6.798;2022-10-16T09:55:12;15.00;99.90
9389;DHT22;4734;52.778;6.798;2022-10-16T09:57:58;15.10;99.90
9389;DHT22;4734;52.778;6.798;2022-10-16T10:00:50;15.20;99.90
9389;DHT22;4734;52.778;6.798;2022-10-16T10:03:38;15.20;99.90
9389;DHT22;4734;52.778;6.798;2022-10-16T10:06:28;15.30;99.90
9389;DHT22;4734;52.778;6.798;2022-10-16T10:09:18;15.40;99.90
9389;DHT22;4734;52.778;6.798;2022-10-16T10:12:06;15.40;99.90
9389;DHT22;4734;52.778;6.798;2022-10-16T10:14:52;15.50;99.90
9389;DHT22;4734;52.778;6.798;2022-10-16T10:17:46;15.60;99.90
9389;DHT22;4734;52.778;6.798;2022-10-16T10:20:34;15.70;99.90
9389;DHT22;4734;52.778;6.798;2022-10-16T10:23:24;15.80;99.90
9389;DHT22;4734;52.778;6.798;2022-10-16T10:26:14;15.80;99.90
9389;DHT22;4734;52.778;6.798;2022-10-16T10:29:06;15.90;99.90
9389;DHT22;4734;52.778;6.798;2022-10-16T10:32:03;16.00;99.90
9389;DHT22;4734;52.778;6.798;2022-10-16T10:35:00;16.00;99.90
9389;DHT22;4734;52.778;6.798;2022-10-16T10:38:00;16.10;99.90
9389;DHT22;4734;52.778;6.798;2022-10-16T10:40:57;16.10;99.90
9389;DHT22;4734;52.778;6.798;2022-10-16T10:43:54;16.10;99.90
9389;DHT22;4734;52.778;6.798;2022-10-16T10:46:47;16.20;99.90
9389;DHT22;4734;52.778;6.798;2022-10-16T10:49:44;16.20;99.90
9389;DHT22;4734;52.778;6.798;2022-10-16T10:52:43;16.20;99.90
9389;DHT22;4734;52.778;6.798;2022-10-16T10:55:39;16.20;99.90
9389;DHT22;4734;52.778;6.798;2022-10-16T10:58:39;16.30;99.90
9389;DHT22;4734;52.778;6.798;2022-10-16T11:01:35;16.30;99.90
9389;DHT22;4734;52.778;6.798;2022-10-16T11:04:39;16.30;99.90
9389;DHT22;4734;52.778;6.798;2022-10-16T11:07:33;16.30;99.90
9389;DHT22;4734;52.778;6.798;2022-10-16T11:10:23;16.40;99.90
9389;DHT22;4734;52.778;6.798;2022-10-16T11:13:17;16.40;99.90
9389;DHT22;4734;52.778;6.798;2022-10-16T11:16:13;16.40;99.90
9389;DHT22;4734;52.778;6.798;2022-10-16T11:19:10;16.50;99.90
9389;DHT22;4734;52.778;6.798;2022-10-16T11:22:02;16.50;99.90
9389;DHT22;4734;52.778;6.798;2022-10-16T11:24:53;16.50;99.90
9389;DHT22;4734;52.778;6.798;2022-10-16T11:27:42;16.50;99.90
9389;DHT22;4734;52.778;6.798;2022-10-16T11:30:31;16.50;99.90
9389;DHT22;4734;52.778;6.798;2022-10-16T11:33:25;16.50;99.90
9389;DHT22;4734;52.778;6.798;2022-10-16T11:36:19;16.60;99.90
9389;DHT22;4734;52.778;6.798;2022-10-16T11:39:16;16.60;99.90
9389;DHT22;4734;52.778;6.798;2022-10-16T11:42:09;16.50;99.90
9389;DHT22;4734;52.778;6.798;2022-10-16T11:45:00;16.60;99.90
9389;DHT22;4734;52.778;6.798;2022-10-16T11:47:54;16.60;99.90
9389;DHT22;4734;52.778;6.798;2022-10-16T11:50:50;16.60;99.90
9389;DHT22;4734;52.778;6.798;2022-10-16T11:53:44;16.60;99.90
9389;DHT22;4734;52.778;6.798;2022-10-16T11:56:32;16.60;99.90
9389;DHT22;4734;52.778;6.798;2022-10-16T11:59:25;16.60;99.90
9389;DHT22;4734;52.778;6.798;2022-10-16T12:02:30;16.60;99.90
9389;DHT22;4734;52.778;6.798;2022-10-16T12:05:24;16.70;99.90
9389;DHT22;4734;52.778;6.798;2022-10-16T12:08:16;16.70;99.90
9389;DHT22;4734;52.778;6.798;2022-10-16T12:11:22;16.70;99.90
9389;DHT22;4734;52.778;6.798;2022-10-16T12:14:38;16.70;99.90
9389;DHT22;4734;52.778;6.798;2022-10-16T12:17:26;16.70;99.90
9389;DHT22;4734;52.778;6.798;2022-10-16T12:20:27;16.70;99.90
9389;DHT22;4734;52.778;6.798;2022-10-16T12:23:20;16.80;99.90
9389;DHT22;4734;52.778;6.798;2022-10-16T12:26:10;16.80;99.90
9389;DHT22;4734;52.778;6.798;2022-10-16T12:28:57;16.80;99.90
9389;DHT22;4734;52.778;6.798;2022-10-16T12:31:54;16.80;99.90
9389;DHT22;4734;52.778;6.798;2022-10-16T12:34:43;16.90;99.90
9389;DHT22;4734;52.778;6.798;2022-10-16T12:37:32;16.90;99.90
9389;DHT22;4734;52.778;6.798;2022-10-16T12:40:27;16.90;99.90
9389;DHT22;4734;52.778;6.798;2022-10-16T12:43:27;16.90;99.90
9389;DHT22;4734;52.778;6.798;2022-10-16T12:46:23;17.00;99.90
9389;DHT22;4734;52.778;6.798;2022-10-16T12:49:22;17.00;99.90
9389;DHT22;4734;52.778;6.798;2022-10-16T12:52:25;17.10;99.90
9389;DHT22;4734;52.778;6.798;2022-10-16T12:55:16;17.10;99.90
9389;DHT22;4734;52.778;6.798;2022-10-16T12:58:19;17.10;99.90
9389;DHT22;4734;52.778;6.798;2022-10-16T13:01:12;17.20;99.90
9389;DHT22;4734;52.778;6.798;2022-10-16T13:07:42;17.20;99.90
9389;DHT22;4734;52.778;6.798;2022-10-16T13:10:35;17.20;99.90
9389;DHT22;4734;52.778;6.798;2022-10-16T13:13:54;17.30;99.90
9389;DHT22;4734;52.778;6.798;2022-10-16T13:16:50;17.30;99.90
9389;DHT22;4734;52.778;6.798;2022-10-16T13:19:42;17.30;99.90
9389;DHT22;4734;52.778;6.798;2022-10-16T13:22:35;17.30;99.90
9389;DHT22;4734;52.778;6.798;2022-10-16T13:25:31;17.40;99.90
9389;DHT22;4734;52.778;6.798;2022-10-16T13:28:22;17.40;99.90
9389;DHT22;4734;52.778;6.798;2022-10-16T13:31:20;17.40;99.90
9389;DHT22;4734;52.778;6.798;2022-10-16T13:34:24;17.50;99.90
9389;DHT22;4734;52.778;6.798;2022-10-16T13:37:17;17.60;99.90
9389;DHT22;4734;52.778;6.798;2022-10-16T13:40:19;17.60;99.90
9389;DHT22;4734;52.778;6.798;2022-10-16T13:43:05;17.70;99.90
9389;DHT22;4734;52.778;6.798;2022-10-16T13:45:59;17.80;99.90
9389;DHT22;4734;52.778;6.798;2022-10-16T13:48:56;17.80;99.90
9389;DHT22;4734;52.778;6.798;2022-10-16T13:51:54;17.90;99.90
9389;DHT22;4734;52.778;6.798;2022-10-16T13:54:39;18.00;99.90
9389;DHT22;4734;52.778;6.798;2022-10-16T13:57:25;18.10;99.90
9389;DHT22;4734;52.778;6.798;2022-10-16T14:00:19;18.20;99.90
9389;DHT22;4734;52.778;6.798;2022-10-16T14:03:11;18.30;99.90
9389;DHT22;4734;52.778;6.798;2022-10-16T14:06:01;18.40;99.90
9389;DHT22;4734;52.778;6.798;2022-10-16T14:08:50;18.50;99.90
9389;DHT22;4734;52.778;6.798;2022-10-16T14:11:47;18.60;99.90
9389;DHT22;4734;52.778;6.798;2022-10-16T14:14:35;18.60;99.90
9389;DHT22;4734;52.778;6.798;2022-10-16T14:17:26;18.70;99.90
9389;DHT22;4734;52.778;6.798;2022-10-16T14:20:14;18.80;99.90
9389;DHT22;4734;52.778;6.798;2022-10-16T14:23:03;18.80;99.90
9389;DHT22;4734;52.778;6.798;2022-10-16T14:25:49;18.90;99.90
9389;DHT22;4734;52.778;6.798;2022-10-16T14:28:35;19.00;99.90
9389;DHT22;4734;52.778;6.798;2022-10-16T14:31:28;19.00;99.90
9389;DHT22;4734;52.778;6.798;2022-10-16T14:34:30;19.10;99.90
9389;DHT22;4734;52.778;6.798;2022-10-16T14:37:24;19.20;99.90
9389;DHT22;4734;52.778;6.798;2022-10-16T14:40:14;19.30;99.90
9389;DHT22;4734;52.778;6.798;2022-10-16T14:43:01;19.30;99.90
9389;DHT22;4734;52.778;6.798;2022-10-16T14:45:51;19.40;99.90
9389;DHT22;4734;52.778;6.798;2022-10-16T14:48:40;19.40;99.90
9389;DHT22;4734;52.778;6.798;2022-10-16T14:51:26;19.50;99.90
9389;DHT22;4734;52.778;6.798;2022-10-16T14:54:13;19.40;99.90
9389;DHT22;4734;52.778;6.798;2022-10-16T14:57:00;19.50;99.90
9389;DHT22;4734;52.778;6.798;2022-10-16T14:59:47;19.50;99.90
9389;DHT22;4734;52.778;6.798;2022-10-16T15:02:34;19.50;99.90
9389;DHT22;4734;52.778;6.798;2022-10-16T15:05:22;19.50;99.90
9389;DHT22;4734;52.778;6.798;2022-10-16T15:08:08;19.50;99.90
9389;DHT22;4734;52.778;6.798;2022-10-16T15:10:54;19.50;99.90
9389;DHT22;4734;52.778;6.798;2022-10-16T15:13:41;19.50;99.90
9389;DHT22;4734;52.778;6.798;2022-10-16T15:16:27;19.40;99.90
9389;DHT22;4734;52.778;6.798;2022-10-16T15:19:12;19.40;99.90
9389;DHT22;4734;52.778;6.798;2022-10-16T15:21:58;19.40;99.90
9389;DHT22;4734;52.778;6.798;2022-10-16T15:24:43;19.40;99.90
9389;DHT22;4734;52.778;6.798;2022-10-16T15:27:29;19.30;99.90
9389;DHT22;4734;52.778;6.798;2022-10-16T15:30:16;19.30;99.90
9389;DHT22;4734;52.778;6.798;2022-10-16T15:33:02;19.30;99.90
9389;DHT22;4734;52.778;6.798;2022-10-16T15:35:48;19.20;99.90
9389;DHT22;4734;52.778;6.798;2022-10-16T15:38:34;19.20;99.90
9389;DHT22;4734;52.778;6.798;2022-10-16T15:41:20;19.10;99.90
9389;DHT22;4734;52.778;6.798;2022-10-16T15:44:05;19.10;99.90
9389;DHT22;4734;52.778;6.798;2022-10-16T15:46:54;19.00;99.90
9389;DHT22;4734;52.778;6.798;2022-10-16T15:49:40;19.00;99.90
9389;DHT22;4734;52.778;6.798;2022-10-16T15:52:26;18.90;99.90
9389;DHT22;4734;52.778;6.798;2022-10-16T15:55:13;18.90;99.90
9389;DHT22;4734;52.778;6.798;2022-10-16T15:57:59;18.80;99.90
9389;DHT22;4734;52.778;6.798;2022-10-16T16:00:45;18.80;99.90
9389;DHT22;4734;52.778;6.798;2022-10-16T16:03:32;18.70;99.90
9389;DHT22;4734;52.778;6.798;2022-10-16T16:06:18;18.60;99.90
9389;DHT22;4734;52.778;6.798;2022-10-16T16:09:03;18.60;99.90
9389;DHT22;4734;52.778;6.798;2022-10-16T16:11:49;18.50;99.90
9389;DHT22;4734;52.778;6.798;2022-10-16T16:14:36;18.40;99.90
9389;DHT22;4734;52.778;6.798;2022-10-16T16:17:22;18.40;99.90
9389;DHT22;4734;52.778;6.798;2022-10-16T16:20:10;18.30;99.90
9389;DHT22;4734;52.778;6.798;2022-10-16T16:22:56;18.20;99.90
9389;DHT22;4734;52.778;6.798;2022-10-16T16:25:41;18.10;99.90
9389;DHT22;4734;52.778;6.798;2022-10-16T16:28:27;18.10;99.90
9389;DHT22;4734;52.778;6.798;2022-10-16T16:31:13;18.00;99.90
9389;DHT22;4734;52.778;6.798;2022-10-16T16:33:58;17.90;99.90
9389;DHT22;4734;52.778;6.798;2022-10-16T16:36:45;17.80;99.90
9389;DHT22;4734;52.778;6.798;2022-10-16T16:39:31;17.70;99.90
9389;DHT22;4734;52.778;6.798;2022-10-16T16:42:16;17.70;99.90
9389;DHT22;4734;52.778;6.798;2022-10-16T16:45:02;17.60;99.90
9389;DHT22;4734;52.778;6.798;2022-10-16T16:47:48;17.50;99.90
9389;DHT22;4734;52.778;6.798;2022-10-16T16:50:35;17.40;99.90
9389;DHT22;4734;52.778;6.798;2022-10-16T16:53:22;17.40;99.90
9389;DHT22;4734;52.778;6.798;2022-10-16T16:56:08;17.30;99.90
9389;DHT22;4734;52.778;6.798;2022-10-16T16:58:57;17.20;99.90
9389;DHT22;4734;52.778;6.798;2022-10-16T17:01:42;17.10;99.90
9389;DHT22;4734;52.778;6.798;2022-10-16T17:04:28;17.00;99.90
9389;DHT22;4734;52.778;6.798;2022-10-16T17:07:13;16.90;99.90
9389;DHT22;4734;52.778;6.798;2022-10-16T17:10:01;16.90;99.90
9389;DHT22;4734;52.778;6.798;2022-10-16T17:12:46;16.80;99.90
9389;DHT22;4734;52.778;6.798;2022-10-16T17:15:32;16.70;99.90
9389;DHT22;4734;52.778;6.798;2022-10-16T17:18:18;16.70;99.90
9389;DHT22;4734;52.778;6.798;2022-10-16T17:21:06;16.60;99.90
9389;DHT22;4734;52.778;6.798;2022-10-16T17:23:52;16.50;99.90
9389;DHT22;4734;52.778;6.798;2022-10-16T17:26:39;16.50;99.90
9389;DHT22;4734;52.778;6.798;2022-10-16T17:29:27;16.40;99.90
9389;DHT22;4734;52.778;6.798;2022-10-16T17:32:12;16.30;99.90
9389;DHT22;4734;52.778;6.798;2022-10-16T17:34:58;16.10;99.90
9389;DHT22;4734;52.778;6.798;2022-10-16T17:37:44;16.00;99.90
9389;DHT22;4734;52.778;6.798;2022-10-16T17:40:30;15.90;99.90
9389;DHT22;4734;52.778;6.798;2022-10-16T17:43:17;15.80;99.90
9389;DHT22;4734;52.778;6.798;2022-10-16T17:46:02;15.70;99.90
9389;DHT22;4734;52.778;6.798;2022-10-16T17:48:50;15.60;99.90
9389;DHT22;4734;52.778;6.798;2022-10-16T17:51:37;15.60;99.90
9389;DHT22;4734;52.778;6.798;2022-10-16T17:54:22;15.40;99.90
9389;DHT22;4734;52.778;6.798;2022-10-16T17:57:08;15.40;99.90
9389;DHT22;4734;52.778;6.798;2022-10-16T17:59:55;15.30;99.90
9389;DHT22;4734;52.778;6.798;2022-10-16T18:02:41;15.20;99.90
9389;DHT22;4734;52.778;6.798;2022-10-16T18:05:26;15.10;99.90
9389;DHT22;4734;52.778;6.798;2022-10-16T18:08:12;15.10;99.90
9389;DHT22;4734;52.778;6.798;2022-10-16T18:10:58;15.00;99.90
9389;DHT22;4734;52.778;6.798;2022-10-16T18:13:43;15.00;99.90
9389;DHT22;4734;52.778;6.798;2022-10-16T18:16:30;14.90;99.90
9389;DHT22;4734;52.778;6.798;2022-10-16T18:19:16;14.80;99.90
9389;DHT22;4734;52.778;6.798;2022-10-16T18:22:01;14.80;99.90
9389;DHT22;4734;52.778;6.798;2022-10-16T18:24:47;14.70;99.90